sensor_id;sensor_type;location;lat;lon;timestamp;P1;durP1;ratioP1;P2;durP2;ratioP2
65998;SDS011;52766;56.008;37.440;2023-04-15T00:01:31;2.75;;;1.30;;
65998;SDS011;52766;56.008;37.440;2023-04-15T00:04:00;2.42;;;1.30;;
65998;SDS011;52766;56.008;37.440;2023-04-15T00:06:26;2.85;;;1.20;;
65998;SDS011;52766;56.008;37.440;2023-04-15T00:08:53;2.53;;;1.27;;
65998;SDS011;52766;56.008;37.440;2023-04-15T00:11:22;1.95;;;0.93;;
65998;SDS011;52766;56.008;37.440;2023-04-15T00:13:53;1.75;;;1.10;;
65998;SDS011;52766;56.008;37.440;2023-04-15T00:16:34;2.85;;;1.40;;
65998;SDS011;52766;56.008;37.440;2023-04-15T00:19:00;2.17;;;1.08;;
65998;SDS011;52766;56.008;37.440;2023-04-15T00:21:26;2.40;;;0.93;;
65998;SDS011;52766;56.008;37.440;2023-04-15T00:23:56;3.22;;;1.25;;
65998;SDS011;52766;56.008;37.440;2023-04-15T00:26:25;1.83;;;0.80;;
65998;SDS011;52766;56.008;37.440;2023-04-15T00:28:52;3.03;;;1.10;;
65998;SDS011;52766;56.008;37.440;2023-04-15T00:31:18;2.55;;;1.00;;
65998;SDS011;52766;56.008;37.440;2023-04-15T00:33:45;3.15;;;0.98;;
65998;SDS011;52766;56.008;37.440;2023-04-15T00:36:11;3.05;;;1.20;;
65998;SDS011;52766;56.008;37.440;2023-04-15T00:38:38;1.88;;;0.95;;
65998;SDS011;52766;56.008;37.440;2023-04-15T00:41:05;2.88;;;1.00;;
65998;SDS011;52766;56.008;37.440;2023-04-15T00:43:37;1.67;;;0.88;;
65998;SDS011;52766;56.008;37.440;2023-04-15T00:46:05;5.28;;;1.20;;
65998;SDS011;52766;56.008;37.440;2023-04-15T00:48:33;1.90;;;1.30;;
65998;SDS011;52766;56.008;37.440;2023-04-15T00:51:00;3.10;;;1.17;;
65998;SDS011;52766;56.008;37.440;2023-04-15T00:53:27;4.72;;;1.05;;
65998;SDS011;52766;56.008;37.440;2023-04-15T00:55:53;1.98;;;1.00;;
65998;SDS011;52766;56.008;37.440;2023-04-15T00:58:22;1.38;;;0.75;;
65998;SDS011;52766;56.008;37.440;2023-04-15T01:00:48;4.53;;;0.93;;
65998;SDS011;52766;56.008;37.440;2023-04-15T01:03:18;1.95;;;1.00;;
65998;SDS011;52766;56.008;37.440;2023-04-15T01:05:45;3.78;;;1.30;;
65998;SDS011;52766;56.008;37.440;2023-04-15T01:08:11;3.00;;;1.15;;
65998;SDS011;52766;56.008;37.440;2023-04-15T01:10:38;2.75;;;1.13;;
65998;SDS011;52766;56.008;37.440;2023-04-15T01:13:03;5.45;;;0.90;;
65998;SDS011;52766;56.008;37.440;2023-04-15T01:15:30;1.73;;;1.10;;
65998;SDS011;52766;56.008;37.440;2023-04-15T01:17:58;1.02;;;0.88;;
65998;SDS011;52766;56.008;37.440;2023-04-15T01:20:25;3.33;;;1.45;;
65998;SDS011;52766;56.008;37.440;2023-04-15T01:22:51;2.65;;;1.15;;
65998;SDS011;52766;56.008;37.440;2023-04-15T01:25:38;5.45;;;1.10;;
65998;SDS011;52766;56.008;37.440;2023-04-15T01:28:08;3.17;;;0.95;;
65998;SDS011;52766;56.008;37.440;2023-04-15T01:30:34;2.92;;;1.23;;
65998;SDS011;52766;56.008;37.440;2023-04-15T01:33:00;3.03;;;1.20;;
65998;SDS011;52766;56.008;37.440;2023-04-15T01:35:44;2.42;;;1.10;;
65998;SDS011;52766;56.008;37.440;2023-04-15T01:38:10;2.25;;;1.10;;
65998;SDS011;52766;56.008;37.440;2023-04-15T01:40:36;6.10;;;1.17;;
65998;SDS011;52766;56.008;37.440;2023-04-15T01:43:04;3.45;;;1.00;;
65998;SDS011;52766;56.008;37.440;2023-04-15T01:45:31;2.33;;;1.02;;
65998;SDS011;52766;56.008;37.440;2023-04-15T01:47:59;2.58;;;1.02;;
65998;SDS011;52766;56.008;37.440;2023-04-15T01:50:27;3.03;;;1.10;;
65998;SDS011;52766;56.008;37.440;2023-04-15T01:52:55;3.63;;;1.50;;
65998;SDS011;52766;56.008;37.440;2023-04-15T01:55:24;1.50;;;1.00;;
65998;SDS011;52766;56.008;37.440;2023-04-15T01:57:51;3.45;;;1.08;;
65998;SDS011;52766;56.008;37.440;2023-04-15T02:00:23;4.95;;;1.23;;
65998;SDS011;52766;56.008;37.440;2023-04-15T02:03:01;4.75;;;1.17;;
65998;SDS011;52766;56.008;37.440;2023-04-15T02:05:47;3.03;;;1.17;;
65998;SDS011;52766;56.008;37.440;2023-04-15T02:08:20;3.45;;;1.00;;
65998;SDS011;52766;56.008;37.440;2023-04-15T02:10:51;1.55;;;1.00;;
65998;SDS011;52766;56.008;37.440;2023-04-15T02:13:24;2.35;;;1.38;;
65998;SDS011;52766;56.008;37.440;2023-04-15T02:15:57;2.03;;;0.93;;
65998;SDS011;52766;56.008;37.440;2023-04-15T02:18:27;2.42;;;1.30;;
65998;SDS011;52766;56.008;37.440;2023-04-15T02:21:17;2.20;;;1.00;;
65998;SDS011;52766;56.008;37.440;2023-04-15T02:23:45;3.97;;;1.00;;
65998;SDS011;52766;56.008;37.440;2023-04-15T02:26:16;2.15;;;0.90;;
65998;SDS011;52766;56.008;37.440;2023-04-15T02:28:43;3.85;;;0.98;;
65998;SDS011;52766;56.008;37.440;2023-04-15T02:31:16;1.83;;;0.98;;
65998;SDS011;52766;56.008;37.440;2023-04-15T02:33:47;5.20;;;1.38;;
65998;SDS011;52766;56.008;37.440;2023-04-15T02:36:19;2.25;;;1.17;;
65998;SDS011;52766;56.008;37.440;2023-04-15T02:38:46;1.80;;;0.98;;
65998;SDS011;52766;56.008;37.440;2023-04-15T02:41:16;2.97;;;0.93;;
65998;SDS011;52766;56.008;37.440;2023-04-15T02:43:45;2.05;;;1.10;;
65998;SDS011;52766;56.008;37.440;2023-04-15T02:46:13;5.90;;;1.17;;
65998;SDS011;52766;56.008;37.440;2023-04-15T02:48:48;2.17;;;1.20;;
65998;SDS011;52766;56.008;37.440;2023-04-15T02:51:18;2.72;;;2.17;;
65998;SDS011;52766;56.008;37.440;2023-04-15T02:53:51;2.90;;;1.30;;
65998;SDS011;52766;56.008;37.440;2023-04-15T02:56:23;2.25;;;1.10;;
65998;SDS011;52766;56.008;37.440;2023-04-15T02:58:51;2.60;;;1.48;;
65998;SDS011;52766;56.008;37.440;2023-04-15T03:01:23;2.78;;;1.00;;
65998;SDS011;52766;56.008;37.440;2023-04-15T03:03:52;2.92;;;1.20;;
65998;SDS011;52766;56.008;37.440;2023-04-15T03:06:22;2.17;;;1.10;;
65998;SDS011;52766;56.008;37.440;2023-04-15T03:08:53;2.65;;;1.17;;
65998;SDS011;52766;56.008;37.440;2023-04-15T03:11:23;2.85;;;1.58;;
65998;SDS011;52766;56.008;37.440;2023-04-15T03:13:57;2.20;;;1.30;;
65998;SDS011;52766;56.008;37.440;2023-04-15T03:16:32;2.38;;;1.13;;
65998;SDS011;52766;56.008;37.440;2023-04-15T03:19:08;3.95;;;1.63;;
65998;SDS011;52766;56.008;37.440;2023-04-15T03:21:41;3.80;;;1.17;;
65998;SDS011;52766;56.008;37.440;2023-04-15T03:24:15;5.55;;;1.40;;
65998;SDS011;52766;56.008;37.440;2023-04-15T03:26:48;2.15;;;1.13;;
65998;SDS011;52766;56.008;37.440;2023-04-15T03:29:19;1.77;;;1.00;;
65998;SDS011;52766;56.008;37.440;2023-04-15T03:31:49;6.68;;;1.20;;
65998;SDS011;52766;56.008;37.440;2023-04-15T03:34:24;4.82;;;1.38;;
65998;SDS011;52766;56.008;37.440;2023-04-15T03:37:05;4.68;;;1.15;;
65998;SDS011;52766;56.008;37.440;2023-04-15T03:39:37;2.20;;;1.20;;
65998;SDS011;52766;56.008;37.440;2023-04-15T03:42:14;3.83;;;1.20;;
65998;SDS011;52766;56.008;37.440;2023-04-15T03:44:53;2.42;;;1.15;;
65998;SDS011;52766;56.008;37.440;2023-04-15T03:47:32;5.38;;;1.20;;
65998;SDS011;52766;56.008;37.440;2023-04-15T03:50:07;4.75;;;1.23;;
65998;SDS011;52766;56.008;37.440;2023-04-15T03:53:01;3.35;;;1.17;;
65998;SDS011;52766;56.008;37.440;2023-04-15T03:55:33;4.22;;;1.35;;
65998;SDS011;52766;56.008;37.440;2023-04-15T03:58:38;2.28;;;1.27;;
65998;SDS011;52766;56.008;37.440;2023-04-15T04:01:15;4.38;;;1.35;;
65998;SDS011;52766;56.008;37.440;2023-04-15T04:03:51;3.40;;;1.15;;
65998;SDS011;52766;56.008;37.440;2023-04-15T04:06:45;7.38;;;2.10;;
65998;SDS011;52766;56.008;37.440;2023-04-15T04:09:19;4.43;;;1.73;;
65998;SDS011;52766;56.008;37.440;2023-04-15T04:12:03;3.80;;;2.08;;
65998;SDS011;52766;56.008;37.440;2023-04-15T04:17:51;3.35;;;0.75;;
65998;SDS011;52766;56.008;37.440;2023-04-15T04:20:32;4.45;;;1.38;;
65998;SDS011;52766;56.008;37.440;2023-04-15T04:23:05;2.60;;;1.27;;
65998;SDS011;52766;56.008;37.440;2023-04-15T04:25:32;2.78;;;1.20;;
65998;SDS011;52766;56.008;37.440;2023-04-15T04:28:01;3.03;;;1.38;;
65998;SDS011;52766;56.008;37.440;2023-04-15T04:31:31;4.53;;;1.38;;
65998;SDS011;52766;56.008;37.440;2023-04-15T04:33:58;5.88;;;1.70;;
65998;SDS011;52766;56.008;37.440;2023-04-15T04:36:26;4.72;;;1.40;;
65998;SDS011;52766;56.008;37.440;2023-04-15T04:38:54;2.60;;;1.10;;
65998;SDS011;52766;56.008;37.440;2023-04-15T04:41:25;1.63;;;1.05;;
65998;SDS011;52766;56.008;37.440;2023-04-15T04:43:57;5.93;;;1.58;;
65998;SDS011;52766;56.008;37.440;2023-04-15T04:46:25;2.85;;;1.40;;
65998;SDS011;52766;56.008;37.440;2023-04-15T04:48:53;3.85;;;1.48;;
65998;SDS011;52766;56.008;37.440;2023-04-15T04:51:20;3.75;;;1.30;;
65998;SDS011;52766;56.008;37.440;2023-04-15T04:53:48;5.07;;;1.80;;
65998;SDS011;52766;56.008;37.440;2023-04-15T04:56:19;4.07;;;1.60;;
65998;SDS011;52766;56.008;37.440;2023-04-15T04:59:01;4.68;;;1.67;;
65998;SDS011;52766;56.008;37.440;2023-04-15T05:04:59;4.53;;;1.83;;
65998;SDS011;52766;56.008;37.440;2023-04-15T05:07:33;5.22;;;1.35;;
65998;SDS011;52766;56.008;37.440;2023-04-15T05:13:27;7.72;;;1.60;;
65998;SDS011;52766;56.008;37.440;2023-04-15T05:19:33;2.97;;;1.20;;
65998;SDS011;52766;56.008;37.440;2023-04-15T05:22:30;5.20;;;1.70;;
65998;SDS011;52766;56.008;37.440;2023-04-15T05:25:10;3.65;;;1.55;;
65998;SDS011;52766;56.008;37.440;2023-04-15T05:27:48;3.15;;;1.63;;
65998;SDS011;52766;56.008;37.440;2023-04-15T05:30:17;5.00;;;1.48;;
65998;SDS011;52766;56.008;37.440;2023-04-15T05:32:50;3.67;;;1.55;;
65998;SDS011;52766;56.008;37.440;2023-04-15T05:35:19;5.53;;;1.58;;
65998;SDS011;52766;56.008;37.440;2023-04-15T05:37:51;4.10;;;1.45;;
65998;SDS011;52766;56.008;37.440;2023-04-15T05:40:45;2.92;;;1.45;;
65998;SDS011;52766;56.008;37.440;2023-04-15T05:43:15;4.95;;;1.60;;
65998;SDS011;52766;56.008;37.440;2023-04-15T05:45:45;5.43;;;1.65;;
65998;SDS011;52766;56.008;37.440;2023-04-15T05:48:22;10.10;;;2.53;;
65998;SDS011;52766;56.008;37.440;2023-04-15T05:50:53;4.68;;;1.75;;
65998;SDS011;52766;56.008;37.440;2023-04-15T05:56:29;3.75;;;1.83;;
65998;SDS011;52766;56.008;37.440;2023-04-15T05:59:01;4.20;;;1.48;;
65998;SDS011;52766;56.008;37.440;2023-04-15T06:01:28;8.50;;;2.13;;
65998;SDS011;52766;56.008;37.440;2023-04-15T06:03:56;5.45;;;1.45;;
65998;SDS011;52766;56.008;37.440;2023-04-15T06:06:27;6.07;;;1.60;;
65998;SDS011;52766;56.008;37.440;2023-04-15T06:09:06;3.90;;;1.88;;
65998;SDS011;52766;56.008;37.440;2023-04-15T06:11:33;4.70;;;1.70;;
65998;SDS011;52766;56.008;37.440;2023-04-15T06:14:25;4.18;;;2.00;;
65998;SDS011;52766;56.008;37.440;2023-04-15T06:17:18;5.38;;;1.58;;
65998;SDS011;52766;56.008;37.440;2023-04-15T06:19:50;5.15;;;1.90;;
65998;SDS011;52766;56.008;37.440;2023-04-15T06:22:30;4.22;;;1.55;;
65998;SDS011;52766;56.008;37.440;2023-04-15T06:25:32;5.18;;;1.50;;
65998;SDS011;52766;56.008;37.440;2023-04-15T06:28:09;3.88;;;1.92;;
65998;SDS011;52766;56.008;37.440;2023-04-15T06:33:49;5.78;;;1.60;;
65998;SDS011;52766;56.008;37.440;2023-04-15T06:36:38;4.40;;;1.60;;
65998;SDS011;52766;56.008;37.440;2023-04-15T06:39:33;3.20;;;1.27;;
65998;SDS011;52766;56.008;37.440;2023-04-15T06:42:34;5.47;;;1.70;;
65998;SDS011;52766;56.008;37.440;2023-04-15T06:45:08;7.03;;;1.75;;
65998;SDS011;52766;56.008;37.440;2023-04-15T06:51:55;4.45;;;1.60;;
65998;SDS011;52766;56.008;37.440;2023-04-15T06:54:25;2.63;;;1.25;;
65998;SDS011;52766;56.008;37.440;2023-04-15T06:57:13;4.75;;;1.27;;
65998;SDS011;52766;56.008;37.440;2023-04-15T06:59:55;2.97;;;1.13;;
65998;SDS011;52766;56.008;37.440;2023-04-15T07:03:01;6.05;;;1.65;;
65998;SDS011;52766;56.008;37.440;2023-04-15T07:09:10;10.95;;;2.05;;
65998;SDS011;52766;56.008;37.440;2023-04-15T07:12:21;6.10;;;2.00;;
65998;SDS011;52766;56.008;37.440;2023-04-15T07:15:16;6.40;;;1.50;;
65998;SDS011;52766;56.008;37.440;2023-04-15T07:18:27;4.72;;;1.75;;
65998;SDS011;52766;56.008;37.440;2023-04-15T07:21:30;10.90;;;3.90;;
65998;SDS011;52766;56.008;37.440;2023-04-15T07:25:05;4.60;;;1.23;;
65998;SDS011;52766;56.008;37.440;2023-04-15T07:33:00;4.47;;;1.70;;
65998;SDS011;52766;56.008;37.440;2023-04-15T07:35:36;5.55;;;1.80;;
65998;SDS011;52766;56.008;37.440;2023-04-15T07:39:45;5.95;;;1.65;;
65998;SDS011;52766;56.008;37.440;2023-04-15T07:50:00;3.60;;;1.50;;
65998;SDS011;52766;56.008;37.440;2023-04-15T07:52:42;7.20;;;1.90;;
65998;SDS011;52766;56.008;37.440;2023-04-15T07:55:38;4.88;;;1.50;;
65998;SDS011;52766;56.008;37.440;2023-04-15T07:58:30;6.35;;;1.50;;
65998;SDS011;52766;56.008;37.440;2023-04-15T08:01:18;2.50;;;1.33;;
65998;SDS011;52766;56.008;37.440;2023-04-15T08:03:58;2.35;;;1.10;;
65998;SDS011;52766;56.008;37.440;2023-04-15T08:07:08;5.65;;;1.67;;
65998;SDS011;52766;56.008;37.440;2023-04-15T08:09:53;6.75;;;1.98;;
65998;SDS011;52766;56.008;37.440;2023-04-15T08:12:46;2.72;;;1.33;;
65998;SDS011;52766;56.008;37.440;2023-04-15T08:15:20;2.92;;;1.50;;
65998;SDS011;52766;56.008;37.440;2023-04-15T08:21:19;4.30;;;1.55;;
65998;SDS011;52766;56.008;37.440;2023-04-15T08:24:03;4.97;;;1.90;;
65998;SDS011;52766;56.008;37.440;2023-04-15T08:26:49;3.67;;;1.35;;
65998;SDS011;52766;56.008;37.440;2023-04-15T08:29:32;6.03;;;1.90;;
65998;SDS011;52766;56.008;37.440;2023-04-15T08:32:03;2.22;;;1.10;;
65998;SDS011;52766;56.008;37.440;2023-04-15T08:34:38;2.22;;;1.20;;
65998;SDS011;52766;56.008;37.440;2023-04-15T08:37:17;4.18;;;1.52;;
65998;SDS011;52766;56.008;37.440;2023-04-15T08:39:48;3.35;;;1.27;;
65998;SDS011;52766;56.008;37.440;2023-04-15T08:42:26;5.97;;;1.75;;
65998;SDS011;52766;56.008;37.440;2023-04-15T08:45:13;3.30;;;1.27;;
65998;SDS011;52766;56.008;37.440;2023-04-15T08:51:14;3.47;;;1.20;;
65998;SDS011;52766;56.008;37.440;2023-04-15T08:54:09;4.43;;;1.60;;
65998;SDS011;52766;56.008;37.440;2023-04-15T08:56:51;7.32;;;2.13;;
65998;SDS011;52766;56.008;37.440;2023-04-15T08:59:24;3.40;;;1.55;;
65998;SDS011;52766;56.008;37.440;2023-04-15T09:02:06;7.28;;;2.85;;
65998;SDS011;52766;56.008;37.440;2023-04-15T09:05:35;4.43;;;1.80;;
65998;SDS011;52766;56.008;37.440;2023-04-15T09:08:58;8.68;;;1.48;;
65998;SDS011;52766;56.008;37.440;2023-04-15T09:14:58;6.07;;;1.60;;
65998;SDS011;52766;56.008;37.440;2023-04-15T09:17:32;4.75;;;1.90;;
65998;SDS011;52766;56.008;37.440;2023-04-15T09:21:27;4.30;;;1.50;;
65998;SDS011;52766;56.008;37.440;2023-04-15T09:57:52;4.57;;;2.17;;
65998;SDS011;52766;56.008;37.440;2023-04-15T10:06:17;2.85;;;1.40;;
65998;SDS011;52766;56.008;37.440;2023-04-15T10:13:38;5.85;;;2.38;;
65998;SDS011;52766;56.008;37.440;2023-04-15T10:16:26;7.53;;;1.77;;
65998;SDS011;52766;56.008;37.440;2023-04-15T10:26:12;10.45;;;2.08;;
65998;SDS011;52766;56.008;37.440;2023-04-15T10:29:40;7.70;;;3.30;;
65998;SDS011;52766;56.008;37.440;2023-04-15T10:33:46;7.32;;;1.83;;
65998;SDS011;52766;56.008;37.440;2023-04-15T10:45:30;7.40;;;2.30;;
65998;SDS011;52766;56.008;37.440;2023-04-15T10:48:36;3.30;;;1.38;;
65998;SDS011;52766;56.008;37.440;2023-04-15T10:51:07;4.25;;;1.80;;
65998;SDS011;52766;56.008;37.440;2023-04-15T10:53:44;7.13;;;1.77;;
65998;SDS011;52766;56.008;37.440;2023-04-15T11:04:11;4.40;;;1.70;;
65998;SDS011;52766;56.008;37.440;2023-04-15T11:21:43;4.88;;;1.48;;
65998;SDS011;52766;56.008;37.440;2023-04-15T11:29:22;4.90;;;1.80;;
65998;SDS011;52766;56.008;37.440;2023-04-15T11:52:40;7.45;;;1.70;;
65998;SDS011;52766;56.008;37.440;2023-04-15T12:20:31;5.38;;;2.00;;
65998;SDS011;52766;56.008;37.440;2023-04-15T12:34:54;5.80;;;2.30;;
65998;SDS011;52766;56.008;37.440;2023-04-15T12:41:19;6.47;;;1.98;;
65998;SDS011;52766;56.008;37.440;2023-04-15T13:39:13;7.20;;;2.60;;
65998;SDS011;52766;56.008;37.440;2023-04-15T13:41:49;6.68;;;2.35;;
65998;SDS011;52766;56.008;37.440;2023-04-15T13:44:20;14.00;;;2.90;;
65998;SDS011;52766;56.008;37.440;2023-04-15T13:47:18;6.55;;;1.92;;
65998;SDS011;52766;56.008;37.440;2023-04-15T13:50:23;5.95;;;2.05;;
65998;SDS011;52766;56.008;37.440;2023-04-15T13:52:57;5.78;;;2.10;;
65998;SDS011;52766;56.008;37.440;2023-04-15T13:55:30;4.57;;;2.15;;
65998;SDS011;52766;56.008;37.440;2023-04-15T13:58:08;8.65;;;3.10;;
65998;SDS011;52766;56.008;37.440;2023-04-15T14:12:37;9.13;;;3.42;;
65998;SDS011;52766;56.008;37.440;2023-04-15T14:16:00;13.60;;;6.03;;
65998;SDS011;52766;56.008;37.440;2023-04-15T14:18:36;9.27;;;5.00;;
65998;SDS011;52766;56.008;37.440;2023-04-15T14:21:16;10.43;;;4.63;;
65998;SDS011;52766;56.008;37.440;2023-04-15T14:28:15;17.02;;;9.15;;
65998;SDS011;52766;56.008;37.440;2023-04-15T14:31:02;12.95;;;6.10;;
65998;SDS011;52766;56.008;37.440;2023-04-15T14:33:52;13.38;;;6.93;;
65998;SDS011;52766;56.008;37.440;2023-04-15T14:36:37;14.73;;;7.18;;
65998;SDS011;52766;56.008;37.440;2023-04-15T14:40:16;10.18;;;6.15;;
65998;SDS011;52766;56.008;37.440;2023-04-15T14:42:55;11.38;;;6.10;;
65998;SDS011;52766;56.008;37.440;2023-04-15T14:48:43;14.45;;;8.05;;
65998;SDS011;52766;56.008;37.440;2023-04-15T14:56:00;17.38;;;9.40;;
65998;SDS011;52766;56.008;37.440;2023-04-15T15:17:08;15.00;;;8.32;;
65998;SDS011;52766;56.008;37.440;2023-04-15T15:20:18;16.77;;;7.85;;
65998;SDS011;52766;56.008;37.440;2023-04-15T15:22:52;16.05;;;8.45;;
65998;SDS011;52766;56.008;37.440;2023-04-15T15:32:54;15.60;;;7.78;;
65998;SDS011;52766;56.008;37.440;2023-04-15T15:36:45;14.48;;;7.65;;
65998;SDS011;52766;56.008;37.440;2023-04-15T15:46:34;15.65;;;6.25;;
65998;SDS011;52766;56.008;37.440;2023-04-15T15:52:16;17.83;;;6.30;;
65998;SDS011;52766;56.008;37.440;2023-04-15T15:55:47;14.00;;;5.68;;
65998;SDS011;52766;56.008;37.440;2023-04-15T16:01:52;17.10;;;7.10;;
65998;SDS011;52766;56.008;37.440;2023-04-15T16:08:10;19.60;;;7.38;;
65998;SDS011;52766;56.008;37.440;2023-04-15T16:11:07;20.98;;;8.77;;
65998;SDS011;52766;56.008;37.440;2023-04-15T16:14:16;16.98;;;7.80;;
65998;SDS011;52766;56.008;37.440;2023-04-15T16:17:06;17.25;;;7.28;;
65998;SDS011;52766;56.008;37.440;2023-04-15T16:19:48;14.40;;;6.45;;
65998;SDS011;52766;56.008;37.440;2023-04-15T16:23:32;14.18;;;6.75;;
65998;SDS011;52766;56.008;37.440;2023-04-15T16:29:45;13.93;;;5.70;;
65998;SDS011;52766;56.008;37.440;2023-04-15T16:40:19;15.40;;;7.47;;
65998;SDS011;52766;56.008;37.440;2023-04-15T16:47:17;31.42;;;9.90;;
65998;SDS011;52766;56.008;37.440;2023-04-15T16:50:11;48.38;;;12.45;;
65998;SDS011;52766;56.008;37.440;2023-04-15T17:04:58;23.45;;;9.30;;
65998;SDS011;52766;56.008;37.440;2023-04-15T17:19:28;51.35;;;17.35;;
65998;SDS011;52766;56.008;37.440;2023-04-15T17:22:30;13.18;;;5.95;;
65998;SDS011;52766;56.008;37.440;2023-04-15T17:46:31;14.18;;;4.40;;
65998;SDS011;52766;56.008;37.440;2023-04-15T17:49:36;9.48;;;3.83;;
65998;SDS011;52766;56.008;37.440;2023-04-15T17:52:36;11.10;;;3.97;;
65998;SDS011;52766;56.008;37.440;2023-04-15T17:55:42;10.32;;;3.83;;
65998;SDS011;52766;56.008;37.440;2023-04-15T17:59:10;11.80;;;3.67;;
65998;SDS011;52766;56.008;37.440;2023-04-15T18:02:20;11.52;;;4.68;;
65998;SDS011;52766;56.008;37.440;2023-04-15T18:05:10;12.60;;;4.40;;
65998;SDS011;52766;56.008;37.440;2023-04-15T18:08:03;8.38;;;4.10;;
65998;SDS011;52766;56.008;37.440;2023-04-15T18:10:52;11.23;;;4.07;;
65998;SDS011;52766;56.008;37.440;2023-04-15T18:13:48;17.92;;;6.18;;
65998;SDS011;52766;56.008;37.440;2023-04-15T18:16:35;11.93;;;4.57;;
65998;SDS011;52766;56.008;37.440;2023-04-15T18:22:23;10.68;;;4.60;;
65998;SDS011;52766;56.008;37.440;2023-04-15T18:25:08;11.10;;;4.97;;
65998;SDS011;52766;56.008;37.440;2023-04-15T18:27:41;11.38;;;5.53;;
65998;SDS011;52766;56.008;37.440;2023-04-15T18:33:55;18.83;;;6.60;;
65998;SDS011;52766;56.008;37.440;2023-04-15T18:40:42;13.60;;;4.80;;
65998;SDS011;52766;56.008;37.440;2023-04-15T18:43:42;16.08;;;6.03;;
65998;SDS011;52766;56.008;37.440;2023-04-15T18:50:23;13.02;;;5.70;;
65998;SDS011;52766;56.008;37.440;2023-04-15T18:53:15;17.17;;;6.13;;
65998;SDS011;52766;56.008;37.440;2023-04-15T19:00:38;17.88;;;7.70;;
65998;SDS011;52766;56.008;37.440;2023-04-15T19:03:16;16.05;;;5.85;;
65998;SDS011;52766;56.008;37.440;2023-04-15T19:05:43;11.90;;;4.85;;
65998;SDS011;52766;56.008;37.440;2023-04-15T19:09:13;27.77;;;9.20;;
65998;SDS011;52766;56.008;37.440;2023-04-15T19:16:07;15.70;;;6.18;;
65998;SDS011;52766;56.008;37.440;2023-04-15T19:18:40;12.38;;;6.00;;
65998;SDS011;52766;56.008;37.440;2023-04-15T19:21:32;19.17;;;6.22;;
65998;SDS011;52766;56.008;37.440;2023-04-15T19:31:10;12.50;;;5.15;;
65998;SDS011;52766;56.008;37.440;2023-04-15T19:34:03;14.27;;;5.22;;
65998;SDS011;52766;56.008;37.440;2023-04-15T19:37:14;12.23;;;5.80;;
65998;SDS011;52766;56.008;37.440;2023-04-15T19:41:30;10.48;;;4.50;;
65998;SDS011;52766;56.008;37.440;2023-04-15T19:48:33;11.45;;;4.63;;
65998;SDS011;52766;56.008;37.440;2023-04-15T19:51:34;10.85;;;4.57;;
65998;SDS011;52766;56.008;37.440;2023-04-15T19:54:25;11.40;;;4.20;;
65998;SDS011;52766;56.008;37.440;2023-04-15T19:56:58;11.98;;;4.10;;
65998;SDS011;52766;56.008;37.440;2023-04-15T19:59:27;10.00;;;4.18;;
65998;SDS011;52766;56.008;37.440;2023-04-15T20:02:00;9.80;;;4.90;;
65998;SDS011;52766;56.008;37.440;2023-04-15T20:04:44;11.98;;;4.53;;
65998;SDS011;52766;56.008;37.440;2023-04-15T20:07:25;15.10;;;4.68;;
65998;SDS011;52766;56.008;37.440;2023-04-15T20:09:56;11.50;;;4.30;;
65998;SDS011;52766;56.008;37.440;2023-04-15T20:12:30;13.73;;;4.82;;
65998;SDS011;52766;56.008;37.440;2023-04-15T20:15:20;12.77;;;4.63;;
65998;SDS011;52766;56.008;37.440;2023-04-15T20:18:01;12.57;;;3.83;;
65998;SDS011;52766;56.008;37.440;2023-04-15T20:20:35;12.40;;;4.18;;
65998;SDS011;52766;56.008;37.440;2023-04-15T20:23:13;16.05;;;5.43;;
65998;SDS011;52766;56.008;37.440;2023-04-15T20:29:07;11.77;;;4.95;;
65998;SDS011;52766;56.008;37.440;2023-04-15T20:31:59;9.25;;;4.22;;
65998;SDS011;52766;56.008;37.440;2023-04-15T20:34:25;19.58;;;6.53;;
65998;SDS011;52766;56.008;37.440;2023-04-15T20:36:56;10.85;;;4.25;;
65998;SDS011;52766;56.008;37.440;2023-04-15T20:39:26;8.23;;;3.92;;
65998;SDS011;52766;56.008;37.440;2023-04-15T20:41:58;9.73;;;4.50;;
65998;SDS011;52766;56.008;37.440;2023-04-15T20:44:31;12.52;;;4.00;;
65998;SDS011;52766;56.008;37.440;2023-04-15T20:47:00;10.68;;;4.20;;
65998;SDS011;52766;56.008;37.440;2023-04-15T20:49:31;12.00;;;4.00;;
65998;SDS011;52766;56.008;37.440;2023-04-15T20:52:01;11.88;;;4.40;;
65998;SDS011;52766;56.008;37.440;2023-04-15T20:56:57;13.43;;;4.13;;
65998;SDS011;52766;56.008;37.440;2023-04-15T20:59:30;11.82;;;4.10;;
65998;SDS011;52766;56.008;37.440;2023-04-15T21:01:58;9.70;;;3.47;;
65998;SDS011;52766;56.008;37.440;2023-04-15T21:04:24;8.18;;;3.58;;
65998;SDS011;52766;56.008;37.440;2023-04-15T21:06:50;10.50;;;3.42;;
65998;SDS011;52766;56.008;37.440;2023-04-15T21:09:19;9.70;;;3.05;;
65998;SDS011;52766;56.008;37.440;2023-04-15T21:11:50;10.43;;;3.08;;
65998;SDS011;52766;56.008;37.440;2023-04-15T21:14:18;7.85;;;3.22;;
65998;SDS011;52766;56.008;37.440;2023-04-15T21:16:44;7.20;;;3.10;;
65998;SDS011;52766;56.008;37.440;2023-04-15T21:19:16;8.30;;;3.17;;
65998;SDS011;52766;56.008;37.440;2023-04-15T21:21:43;7.70;;;2.97;;
65998;SDS011;52766;56.008;37.440;2023-04-15T21:24:37;6.63;;;3.17;;
65998;SDS011;52766;56.008;37.440;2023-04-15T21:27:12;6.22;;;3.05;;
65998;SDS011;52766;56.008;37.440;2023-04-15T21:29:40;10.63;;;3.22;;
65998;SDS011;52766;56.008;37.440;2023-04-15T21:32:06;7.18;;;2.85;;
65998;SDS011;52766;56.008;37.440;2023-04-15T21:34:32;8.30;;;3.03;;
65998;SDS011;52766;56.008;37.440;2023-04-15T21:36:59;7.90;;;2.78;;
65998;SDS011;52766;56.008;37.440;2023-04-15T21:39:26;8.32;;;3.58;;
65998;SDS011;52766;56.008;37.440;2023-04-15T21:41:52;7.13;;;2.60;;
65998;SDS011;52766;56.008;37.440;2023-04-15T21:44:21;8.02;;;3.15;;
65998;SDS011;52766;56.008;37.440;2023-04-15T21:46:47;7.00;;;2.90;;
65998;SDS011;52766;56.008;37.440;2023-04-15T21:49:13;12.95;;;3.10;;
65998;SDS011;52766;56.008;37.440;2023-04-15T21:51:47;9.95;;;3.20;;
65998;SDS011;52766;56.008;37.440;2023-04-15T21:54:17;9.30;;;3.53;;
65998;SDS011;52766;56.008;37.440;2023-04-15T21:56:43;7.82;;;2.83;;
65998;SDS011;52766;56.008;37.440;2023-04-15T21:59:13;10.95;;;3.47;;
65998;SDS011;52766;56.008;37.440;2023-04-15T22:01:40;7.38;;;3.20;;
65998;SDS011;52766;56.008;37.440;2023-04-15T22:04:05;11.30;;;3.08;;
65998;SDS011;52766;56.008;37.440;2023-04-15T22:06:35;8.10;;;3.10;;
65998;SDS011;52766;56.008;37.440;2023-04-15T22:09:02;8.32;;;3.30;;
65998;SDS011;52766;56.008;37.440;2023-04-15T22:11:28;12.40;;;3.80;;
65998;SDS011;52766;56.008;37.440;2023-04-15T22:13:57;8.80;;;3.60;;
65998;SDS011;52766;56.008;37.440;2023-04-15T22:16:25;9.65;;;3.20;;
65998;SDS011;52766;56.008;37.440;2023-04-15T22:18:51;7.47;;;3.45;;
65998;SDS011;52766;56.008;37.440;2023-04-15T22:21:17;13.18;;;3.60;;
65998;SDS011;52766;56.008;37.440;2023-04-15T22:23:47;14.85;;;;;
65998;SDS011;52766;56.008;37.440;2023-04-15T22:26:14;8.05;;;3.88;;
65998;SDS011;52766;56.008;37.440;2023-04-15T22:28:40;7.95;;;3.42;;
65998;SDS011;52766;56.008;37.440;2023-04-15T22:31:06;11.38;;;3.55;;
65998;SDS011;52766;56.008;37.440;2023-04-15T22:33:32;9.73;;;4.07;;
65998;SDS011;52766;56.008;37.440;2023-04-15T22:35:59;9.00;;;4.38;;
65998;SDS011;52766;56.008;37.440;2023-04-15T22:38:25;9.32;;;4.00;;
65998;SDS011;52766;56.008;37.440;2023-04-15T22:40:53;8.65;;;3.63;;
65998;SDS011;52766;56.008;37.440;2023-04-15T22:43:19;6.65;;;3.33;;
65998;SDS011;52766;56.008;37.440;2023-04-15T22:45:49;12.52;;;4.25;;
65998;SDS011;52766;56.008;37.440;2023-04-15T22:48:16;9.93;;;3.50;;